createdAt,value
2022-11-24T00:02:28.978Z,17.83
2022-11-24T00:05:30.828Z,18.95
2022-11-24T00:08:32.388Z,18.52
2022-11-24T00:11:35.637Z,19.50
2022-11-24T00:14:37.205Z,18.98
2022-11-24T00:17:38.767Z,18.23
2022-11-24T00:20:40.340Z,17.95
2022-11-24T00:23:41.974Z,19.60
2022-11-24T00:26:43.539Z,20.38
2022-11-24T00:29:45.159Z,18.98
2022-11-24T00:32:46.715Z,19.13
2022-11-24T00:35:55.242Z,18.67
2022-11-24T00:39:06.832Z,18.38
2022-11-24T00:42:08.454Z,17.92
2022-11-24T00:45:13.869Z,19.55
2022-11-24T00:48:16.146Z,19.90
2022-11-24T00:51:18.237Z,18.38
2022-11-24T00:54:19.887Z,19.92
2022-11-24T00:57:21.434Z,20.30
2022-11-24T01:00:23.158Z,19.98
2022-11-24T01:03:24.701Z,19.65
2022-11-24T01:06:26.659Z,18.73
2022-11-24T01:09:28.239Z,20.07
2022-11-24T01:12:29.806Z,18.45
2022-11-24T01:15:31.419Z,17.77
2022-11-24T01:18:33.068Z,18.15
2022-11-24T01:21:34.703Z,18.17
2022-11-24T01:24:36.498Z,17.27
2022-11-24T01:27:38.256Z,17.55
2022-11-24T01:30:39.941Z,16.98
2022-11-24T01:33:41.543Z,16.50
2022-11-24T01:36:43.159Z,16.45
2022-11-24T01:39:44.690Z,17.17
2022-11-24T01:42:50.415Z,18.25
2022-11-24T01:45:52.011Z,18.53
2022-11-24T01:48:58.435Z,17.67
2022-11-24T01:52:06.751Z,17.33
2022-11-24T01:55:19.648Z,16.92
2022-11-24T01:58:23.682Z,17.33
2022-11-24T02:01:25.430Z,16.63
2022-11-24T02:04:29.800Z,18.23
2022-11-24T02:07:31.496Z,17.23
2022-11-24T02:10:33.060Z,18.97
2022-11-24T02:13:34.945Z,19.33
2022-11-24T02:16:36.672Z,18.45
2022-11-24T02:19:41.323Z,18.02
2022-11-24T02:22:51.829Z,19.23
2022-11-24T02:26:08.311Z,18.27
2022-11-24T02:29:10.641Z,17.75
2022-11-24T02:32:12.199Z,18.50
2022-11-24T02:35:13.893Z,18.43
2022-11-24T02:38:15.479Z,18.40
2022-11-24T02:41:19.999Z,18.75
2022-11-24T02:44:22.402Z,17.67
2022-11-24T02:47:24.023Z,18.40
2022-11-24T02:50:25.615Z,18.20
2022-11-24T02:53:27.181Z,18.08
2022-11-24T02:56:28.764Z,20.00
2022-11-24T02:59:30.384Z,18.00
2022-11-24T03:02:32.266Z,18.95
2022-11-24T03:05:33.867Z,18.88
2022-11-24T03:08:35.435Z,19.15
2022-11-24T03:11:37.829Z,20.37
2022-11-24T03:14:39.384Z,18.63
2022-11-24T03:17:40.973Z,20.67
2022-11-24T03:20:42.531Z,20.60
2022-11-24T03:23:44.207Z,19.00
2022-11-24T03:26:45.767Z,19.50
2022-11-24T03:29:47.333Z,21.00
2022-11-24T03:32:51.280Z,20.13
2022-11-24T03:35:52.846Z,18.73
2022-11-24T03:38:54.416Z,18.73
2022-11-24T03:41:55.988Z,21.52
2022-11-24T03:44:57.537Z,20.03
2022-11-24T03:47:59.166Z,20.42
2022-11-24T03:51:01.233Z,20.25
2022-11-24T03:54:02.849Z,20.15
2022-11-24T03:57:04.492Z,19.30
2022-11-24T04:00:06.916Z,18.83
2022-11-24T04:03:09.008Z,20.23
2022-11-24T04:06:10.653Z,19.95
2022-11-24T04:09:12.200Z,18.55
2022-11-24T04:12:32.304Z,18.23
2022-11-24T04:15:33.878Z,18.67
2022-11-24T04:18:35.508Z,18.47
2022-11-24T04:21:37.075Z,18.00
2022-11-24T04:24:38.658Z,18.73
2022-11-24T04:27:40.274Z,21.17
2022-11-24T04:30:44.845Z,19.40
2022-11-24T04:33:46.800Z,18.30
2022-11-24T04:36:48.371Z,18.20
2022-11-24T04:39:50.024Z,19.30
2022-11-24T04:42:55.290Z,19.58
2022-11-24T04:45:56.831Z,19.92
2022-11-24T04:48:58.417Z,20.25
2022-11-24T04:52:00.030Z,20.57
2022-11-24T04:55:01.645Z,18.50
2022-11-24T04:58:03.472Z,18.95
2022-11-24T05:01:08.560Z,18.15
2022-11-24T05:04:11.755Z,19.67
2022-11-24T05:07:19.064Z,19.13
2022-11-24T05:10:36.060Z,19.65
2022-11-24T05:13:37.630Z,19.67
2022-11-24T05:16:39.328Z,19.20
2022-11-24T05:19:41.058Z,20.08
2022-11-24T05:22:42.677Z,18.20
2022-11-24T05:25:47.657Z,19.42
2022-11-24T05:28:49.639Z,19.77
2022-11-24T05:31:51.342Z,18.60
2022-11-24T05:34:54.002Z,19.00
2022-11-24T05:37:55.665Z,18.17
2022-11-24T05:41:03.820Z,19.13
2022-11-24T05:44:05.661Z,17.73
2022-11-24T05:47:07.322Z,18.77
2022-11-24T05:50:10.897Z,19.20
2022-11-24T05:53:13.078Z,18.08
2022-11-24T05:56:14.744Z,17.00
2022-11-24T05:59:16.397Z,16.25
2022-11-24T06:02:18.139Z,15.25
2022-11-24T06:05:19.883Z,14.53
2022-11-24T06:08:22.371Z,15.82
2022-11-24T06:11:26.152Z,13.63
2022-11-24T06:14:27.892Z,13.50
2022-11-24T06:17:29.479Z,12.03
2022-11-24T06:20:32.885Z,11.43
2022-11-24T06:23:34.856Z,11.43
2022-11-24T06:26:36.532Z,12.10
2022-11-24T06:29:38.821Z,12.17
2022-11-24T06:32:49.106Z,12.80
2022-11-24T06:35:51.415Z,12.80
2022-11-24T06:38:53.534Z,11.05
2022-11-24T06:41:55.175Z,11.80
2022-11-24T06:44:57.081Z,10.63
2022-11-24T06:47:58.817Z,10.10
2022-11-24T06:51:01.369Z,10.43
2022-11-24T06:54:07.026Z,10.23
2022-11-24T06:57:09.497Z,8.20
2022-11-24T07:00:11.950Z,8.52
2022-11-24T07:03:16.846Z,9.15
2022-11-24T07:06:18.726Z,8.93
2022-11-24T07:09:20.377Z,9.95
2022-11-24T07:12:22.170Z,9.57
2022-11-24T07:15:23.768Z,10.55
2022-11-24T07:18:25.354Z,10.13
2022-11-24T07:21:27.106Z,9.30
2022-11-24T07:24:28.757Z,11.35
2022-11-24T07:27:30.477Z,10.50
2022-11-24T07:30:32.101Z,10.63
2022-11-24T07:33:34.042Z,11.07
2022-11-24T07:36:35.835Z,11.02
2022-11-24T07:39:37.752Z,12.15
2022-11-24T07:42:39.481Z,13.53
2022-11-24T07:45:41.162Z,14.55
2022-11-24T07:48:42.910Z,15.55
2022-11-24T07:51:44.720Z,16.25
2022-11-24T07:54:46.393Z,17.13
2022-11-24T07:57:48.025Z,17.90
2022-11-24T08:00:50.857Z,17.88
2022-11-24T08:03:52.648Z,18.08
2022-11-24T08:06:54.401Z,18.37
2022-11-24T08:09:56.019Z,18.02
2022-11-24T08:13:01.329Z,19.55
2022-11-24T08:16:07.265Z,18.73
2022-11-24T08:19:11.020Z,18.70
2022-11-24T08:22:12.766Z,17.25
2022-11-24T08:25:14.655Z,18.30
2022-11-24T08:28:16.458Z,16.50
2022-11-24T08:31:20.950Z,18.67
2022-11-24T08:34:24.100Z,16.40
2022-11-24T08:37:27.714Z,16.80
2022-11-24T08:40:29.579Z,16.52
2022-11-24T08:43:31.311Z,17.83
2022-11-24T08:46:33.067Z,16.92
2022-11-24T08:49:34.781Z,17.15
2022-11-24T08:52:36.625Z,14.88
2022-11-24T08:55:38.396Z,15.23
2022-11-24T08:58:40.318Z,16.50
2022-11-24T09:01:42.274Z,16.05
2022-11-24T09:04:45.154Z,15.85
2022-11-24T09:07:47.075Z,15.70
2022-11-24T09:10:49.006Z,15.02
2022-11-24T09:13:50.661Z,14.43
2022-11-24T09:16:52.339Z,13.25
2022-11-24T09:19:54.198Z,14.40
2022-11-24T09:22:56.264Z,14.77
2022-11-24T09:26:05.936Z,14.45
2022-11-24T09:29:10.029Z,14.07
2022-11-24T09:32:11.648Z,13.17
2022-11-24T09:35:13.270Z,13.98
2022-11-24T09:38:15.045Z,13.27
2022-11-24T09:41:28.797Z,13.52
2022-11-24T09:44:57.454Z,13.77
2022-11-24T09:48:03.853Z,13.38
2022-11-24T09:51:05.654Z,13.55
2022-11-24T09:54:11.774Z,14.50
2022-11-24T09:57:13.465Z,13.00
2022-11-24T10:00:15.498Z,12.90
2022-11-24T10:03:23.540Z,12.05
2022-11-24T10:06:52.540Z,12.38
2022-11-24T10:10:21.199Z,11.93
2022-11-24T10:13:47.861Z,12.52
2022-11-24T10:17:09.797Z,10.75
2022-11-24T10:20:29.348Z,11.27
2022-11-24T10:23:39.611Z,11.37
2022-11-24T10:26:47.129Z,11.05
2022-11-24T10:29:50.530Z,11.32
2022-11-24T10:33:03.555Z,10.50
2022-11-24T10:36:08.081Z,10.83
2022-11-24T10:39:15.242Z,10.95
2022-11-24T10:42:29.153Z,10.68
2022-11-24T10:45:30.893Z,10.10
2022-11-24T10:48:57.979Z,10.30
2022-11-24T10:52:22.664Z,9.77
2022-11-24T10:55:24.473Z,9.10
2022-11-24T10:58:28.078Z,8.30
2022-11-24T11:01:32.952Z,9.02
2022-11-24T11:04:35.658Z,8.63
2022-11-24T11:07:37.421Z,7.53
2022-11-24T11:10:39.052Z,7.72
2022-11-24T11:14:01.700Z,7.15
2022-11-24T11:17:30.728Z,7.47
2022-11-24T11:20:33.755Z,7.20
2022-11-24T11:23:35.745Z,6.95
2022-11-24T11:26:37.905Z,7.43
2022-11-24T11:36:23.737Z,6.40
2022-11-24T11:39:28.266Z,6.68
2022-11-24T11:46:02.567Z,5.97
2022-11-24T11:49:04.511Z,5.85
2022-11-24T11:52:17.051Z,6.30
2022-11-24T11:55:54.969Z,6.13
2022-11-24T11:59:27.155Z,6.00
2022-11-24T12:02:37.682Z,6.00
2022-11-24T12:05:51.630Z,5.40
2022-11-24T12:09:36.050Z,5.55
2022-11-24T12:12:44.811Z,5.93
2022-11-24T12:15:51.917Z,5.85
2022-11-24T12:19:29.363Z,5.88
2022-11-24T12:22:48.634Z,5.75
2022-11-24T12:26:00.993Z,5.53
2022-11-24T12:29:06.413Z,5.70
2022-11-24T12:32:35.688Z,6.82
2022-11-24T12:35:45.788Z,6.68
2022-11-24T12:39:07.211Z,6.22
2022-11-24T12:42:12.001Z,6.07
2022-11-24T12:45:15.838Z,6.10
2022-11-24T12:48:43.446Z,6.20
2022-11-24T12:51:47.274Z,5.55
2022-11-24T12:54:48.879Z,5.97
2022-11-24T12:58:14.086Z,6.07
2022-11-24T13:01:21.915Z,6.00
2022-11-24T13:04:54.556Z,5.07
2022-11-24T13:07:57.970Z,5.00
2022-11-24T13:11:26.476Z,5.70
2022-11-24T13:14:31.943Z,6.72
2022-11-24T13:17:52.481Z,6.65
2022-11-24T13:20:55.937Z,6.43
2022-11-24T13:23:58.388Z,5.80
2022-11-24T13:27:19.773Z,5.65
2022-11-24T13:30:33.487Z,5.82
2022-11-24T13:33:35.488Z,6.00
2022-11-24T13:36:52.762Z,5.07
2022-11-24T13:40:23.149Z,5.75
2022-11-24T13:43:24.957Z,5.95
2022-11-24T13:47:05.237Z,5.45
2022-11-24T13:50:13.453Z,5.47
2022-11-24T13:53:15.891Z,5.32
2022-11-24T13:56:17.519Z,5.50
2022-11-24T13:59:31.249Z,6.03
2022-11-24T14:02:34.713Z,6.10
2022-11-24T14:05:38.581Z,5.50
2022-11-24T14:08:40.189Z,5.45
2022-11-24T14:11:41.786Z,5.28
2022-11-24T14:14:44.688Z,5.45
2022-11-24T14:17:46.516Z,5.30
2022-11-24T14:20:48.487Z,5.95
2022-11-24T14:23:58.126Z,5.07
2022-11-24T14:27:00.144Z,5.60
2022-11-24T14:30:22.069Z,4.43
2022-11-24T14:33:25.719Z,4.63
2022-11-24T14:36:27.405Z,4.28
2022-11-24T14:39:30.310Z,4.18
2022-11-24T14:42:33.319Z,4.17
2022-11-24T14:45:35.036Z,4.28
2022-11-24T14:48:37.805Z,5.05
2022-11-24T14:51:43.182Z,4.57
2022-11-24T14:54:53.426Z,4.70
2022-11-24T14:57:55.098Z,4.80
2022-11-24T15:01:11.425Z,4.38
2022-11-24T15:04:46.181Z,5.10
2022-11-24T15:07:45.420Z,4.80
2022-11-24T15:10:47.114Z,4.93
2022-11-24T15:13:54.549Z,5.35
2022-11-24T15:16:56.165Z,5.27
2022-11-24T15:19:58.788Z,4.80
2022-11-24T15:23:23.138Z,5.65
2022-11-24T15:26:30.799Z,5.70
2022-11-24T15:29:34.968Z,5.10
2022-11-24T15:32:36.901Z,6.60
2022-11-24T15:35:38.994Z,5.90
2022-11-24T15:38:40.947Z,6.28
2022-11-24T15:41:42.583Z,5.87
2022-11-24T15:44:44.272Z,6.00
2022-11-24T15:47:45.908Z,6.10
2022-11-24T15:50:48.117Z,6.72
2022-11-24T15:53:54.150Z,6.47
2022-11-24T15:56:59.261Z,6.32
2022-11-24T16:00:00.989Z,6.45
2022-11-24T16:03:23.943Z,5.97
2022-11-24T16:06:25.459Z,6.17
2022-11-24T16:09:27.451Z,6.38
2022-11-24T16:12:29.088Z,6.57
2022-11-24T16:15:30.737Z,6.38
2022-11-24T16:18:32.413Z,6.30
2022-11-24T16:21:34.047Z,6.47
2022-11-24T16:24:36.102Z,6.68
2022-11-24T16:27:38.082Z,6.70
2022-11-24T16:30:39.993Z,6.73
2022-11-24T16:33:43.756Z,6.10
2022-11-24T16:36:45.345Z,7.40
2022-11-24T16:39:49.958Z,7.13
2022-11-24T16:42:53.108Z,6.88
2022-11-24T16:46:16.726Z,6.72
2022-11-24T16:49:18.769Z,6.53
2022-11-24T16:52:20.619Z,7.40
2022-11-24T16:55:22.924Z,6.63
2022-11-24T16:58:24.832Z,7.30
2022-11-24T17:01:26.602Z,6.90
2022-11-24T17:04:28.294Z,6.77
2022-11-24T17:07:30.075Z,6.65
2022-11-24T17:10:31.822Z,7.55
2022-11-24T17:13:33.850Z,6.47
2022-11-24T17:16:36.824Z,7.10
2022-11-24T17:19:38.476Z,7.25
2022-11-24T17:22:40.086Z,7.07
2022-11-24T17:25:41.786Z,8.10
2022-11-24T17:28:43.624Z,7.15
2022-11-24T17:31:45.372Z,7.55
2022-11-24T17:34:47.074Z,6.82
2022-11-24T17:37:48.802Z,8.00
2022-11-24T17:40:50.442Z,6.63
2022-11-24T17:43:53.013Z,7.40
2022-11-24T17:46:54.695Z,7.35
2022-11-24T17:49:56.315Z,7.17
2022-11-24T17:52:57.958Z,7.00
2022-11-24T17:56:00.405Z,7.38
2022-11-24T17:59:02.209Z,6.82
2022-11-24T18:02:03.911Z,7.88
2022-11-24T18:05:05.717Z,7.00
2022-11-24T18:08:07.363Z,6.85
2022-11-24T18:11:13.558Z,7.13
2022-11-24T18:14:15.174Z,7.32
2022-11-24T18:17:16.840Z,7.70
2022-11-24T18:20:18.569Z,7.15
2022-11-24T18:23:20.224Z,6.80
2022-11-24T18:26:23.009Z,6.85
2022-11-24T18:29:24.686Z,6.32
2022-11-24T18:32:26.376Z,7.15
2022-11-24T18:35:28.025Z,6.53
2022-11-24T18:38:29.757Z,7.50
2022-11-24T18:41:31.980Z,7.18
2022-11-24T18:44:33.846Z,8.13
2022-11-24T18:47:35.748Z,7.93
2022-11-24T18:50:37.691Z,7.47
2022-11-24T18:53:39.592Z,7.68
2022-11-24T18:56:41.363Z,8.33
2022-11-24T18:59:43.024Z,8.07
2022-11-24T19:02:44.680Z,7.60
2022-11-24T19:05:46.533Z,7.72
2022-11-24T19:08:48.343Z,7.78
2022-11-24T19:11:50.035Z,7.63
2022-11-24T19:14:51.983Z,7.78
2022-11-24T19:17:53.668Z,7.30
2022-11-24T19:20:58.464Z,8.45
2022-11-24T19:24:04.830Z,8.27
2022-11-24T19:27:07.537Z,8.15
2022-11-24T19:30:09.584Z,8.05
2022-11-24T19:33:11.236Z,7.93
2022-11-24T19:36:13.675Z,8.18
2022-11-24T19:39:15.568Z,9.67
2022-11-24T19:42:17.228Z,9.07
2022-11-24T19:45:18.918Z,8.93
2022-11-24T19:48:20.641Z,8.15
2022-11-24T19:51:24.006Z,9.00
2022-11-24T19:54:25.616Z,8.45
2022-11-24T19:57:27.209Z,8.00
2022-11-24T20:00:31.939Z,9.38
2022-11-24T20:03:34.500Z,9.50
2022-11-24T20:06:37.648Z,9.05
2022-11-24T20:09:39.297Z,9.65
2022-11-24T20:12:41.020Z,9.32
2022-11-24T20:15:42.648Z,8.90
2022-11-24T20:18:45.296Z,9.30
2022-11-24T20:21:48.006Z,8.60
2022-11-24T20:24:49.650Z,8.45
2022-11-24T20:27:51.307Z,8.68
2022-11-24T20:30:52.933Z,9.23
2022-11-24T20:33:54.594Z,9.68
2022-11-24T20:36:56.241Z,9.77
2022-11-24T20:40:03.055Z,9.45
2022-11-24T20:43:04.701Z,10.32
2022-11-24T20:46:17.134Z,9.82
2022-11-24T20:49:19.707Z,9.82
2022-11-24T20:52:21.324Z,9.60
2022-11-24T20:55:22.938Z,9.55
2022-11-24T20:58:24.621Z,9.83
2022-11-24T21:01:31.099Z,10.15
2022-11-24T21:04:35.284Z,9.40
2022-11-24T21:07:37.156Z,9.00
2022-11-24T21:10:38.809Z,8.83
2022-11-24T21:13:42.844Z,9.75
2022-11-24T21:16:44.650Z,9.27
2022-11-24T21:19:46.711Z,9.43
2022-11-24T21:22:48.359Z,9.90
2022-11-24T21:25:49.940Z,9.48
2022-11-24T21:28:51.562Z,9.82
2022-11-24T21:31:53.202Z,8.77
2022-11-24T21:34:55.184Z,8.87
2022-11-24T21:37:56.797Z,9.60
2022-11-24T21:41:01.885Z,9.88
2022-11-24T21:44:03.690Z,9.82
2022-11-24T21:47:05.402Z,9.98
2022-11-24T21:50:07.844Z,9.40
2022-11-24T21:53:09.591Z,9.13
2022-11-24T21:56:18.250Z,9.03
2022-11-24T21:59:20.739Z,10.07
2022-11-24T22:02:22.378Z,9.57
2022-11-24T22:05:24.102Z,10.27
2022-11-24T22:08:26.380Z,9.90
2022-11-24T22:11:27.988Z,10.80
2022-11-24T22:14:29.787Z,10.23
2022-11-24T22:17:31.465Z,9.93
2022-11-24T22:20:33.154Z,9.70
2022-11-24T22:23:36.458Z,9.80
2022-11-24T22:26:38.085Z,10.80
2022-11-24T22:29:39.680Z,10.82
2022-11-24T22:32:41.301Z,10.10
2022-11-24T22:35:43.000Z,9.50
2022-11-24T22:38:44.645Z,9.85
2022-11-24T22:41:46.343Z,9.87
2022-11-24T22:44:47.991Z,10.18
2022-11-24T22:47:54.083Z,9.77
2022-11-24T22:51:03.285Z,9.93
2022-11-24T22:54:05.609Z,10.38
2022-11-24T22:57:07.253Z,10.10
2022-11-24T23:00:09.382Z,9.85
2022-11-24T23:03:11.081Z,10.10
2022-11-24T23:06:14.253Z,10.65
2022-11-24T23:09:15.893Z,10.38
2022-11-24T23:12:18.513Z,10.45
2022-11-24T23:15:20.222Z,10.23
2022-11-24T23:18:21.903Z,9.98
2022-11-24T23:21:30.854Z,10.98
2022-11-24T23:24:32.626Z,10.27
2022-11-24T23:27:34.408Z,9.68
2022-11-24T23:30:36.130Z,10.05
2022-11-24T23:33:37.933Z,10.13
2022-11-24T23:36:39.575Z,10.97
2022-11-24T23:39:41.216Z,9.85
2022-11-24T23:42:42.848Z,10.20
2022-11-24T23:45:44.510Z,10.00
2022-11-24T23:48:46.226Z,10.17
2022-11-24T23:51:47.814Z,10.07
2022-11-24T23:54:49.456Z,10.23
2022-11-24T23:57:51.112Z,10.10
